createdAt,value
2018-07-24T00:02:05.674Z,99.90
2018-07-24T00:04:34.314Z,99.90
2018-07-24T00:07:02.817Z,99.90
2018-07-24T00:09:31.296Z,99.90
2018-07-24T00:12:00.084Z,99.90
2018-07-24T00:14:28.635Z,99.90
2018-07-24T00:16:57.354Z,99.90
2018-07-24T00:19:26.199Z,99.90
2018-07-24T00:21:55.016Z,99.90
2018-07-24T00:24:23.505Z,99.90
2018-07-24T00:26:52.202Z,99.90
2018-07-24T00:29:21.050Z,99.90
2018-07-24T00:31:50.076Z,99.90
2018-07-24T00:34:18.554Z,99.90
2018-07-24T00:36:47.378Z,99.90
2018-07-24T00:39:16.099Z,99.90
2018-07-24T00:41:44.575Z,99.90
2018-07-24T00:44:13.358Z,99.90
2018-07-24T00:46:42.070Z,99.90
2018-07-24T00:49:10.570Z,99.90
2018-07-24T00:51:39.334Z,99.90
2018-07-24T00:54:08.045Z,99.90
2018-07-24T00:56:36.544Z,99.90
2018-07-24T00:59:05.079Z,99.90
2018-07-24T01:01:33.595Z,99.90
2018-07-24T01:04:02.109Z,99.90
2018-07-24T01:06:30.611Z,99.90
2018-07-24T01:08:59.307Z,99.90
2018-07-24T01:11:27.808Z,99.90
2018-07-24T01:13:56.638Z,99.90
2018-07-24T01:16:25.147Z,99.90
2018-07-24T01:18:53.947Z,99.90
2018-07-24T01:21:22.435Z,99.90
2018-07-24T01:23:50.866Z,99.90
2018-07-24T01:26:19.348Z,99.90
2018-07-24T01:28:48.350Z,99.90
2018-07-24T01:31:16.838Z,99.90
2018-07-24T01:33:45.347Z,99.90
2018-07-24T01:36:13.881Z,99.90
2018-07-24T01:38:42.383Z,99.90
2018-07-24T01:41:10.881Z,99.90
2018-07-24T01:43:39.447Z,99.90
2018-07-24T01:46:07.898Z,99.90
2018-07-24T01:48:36.388Z,99.90
2018-07-24T01:51:04.879Z,99.90
2018-07-24T01:53:33.617Z,99.90
2018-07-24T01:56:02.157Z,99.90
2018-07-24T01:58:30.875Z,99.90
2018-07-24T02:01:02.617Z,99.90
2018-07-24T02:03:31.755Z,99.90
2018-07-24T02:06:00.250Z,99.90
2018-07-24T02:08:29.090Z,99.90
2018-07-24T02:10:57.872Z,99.90
2018-07-24T02:13:26.364Z,99.90
2018-07-24T02:15:55.174Z,99.90
2018-07-24T02:18:23.968Z,99.90
2018-07-24T02:20:52.454Z,99.90
2018-07-24T02:23:20.899Z,99.90
2018-07-24T02:25:49.680Z,99.90
2018-07-24T02:28:18.164Z,99.90
2018-07-24T02:30:46.743Z,99.90
2018-07-24T02:33:15.486Z,99.90
2018-07-24T02:35:43.962Z,99.90
2018-07-24T02:38:12.456Z,99.90
2018-07-24T02:40:40.911Z,99.90
2018-07-24T02:43:09.429Z,99.90
2018-07-24T02:45:37.894Z,99.90
2018-07-24T02:48:06.402Z,99.90
2018-07-24T02:50:35.551Z,99.90
2018-07-24T02:53:04.059Z,99.90
2018-07-24T02:55:32.799Z,99.90
2018-07-24T02:58:01.306Z,99.90
2018-07-24T03:00:29.759Z,99.90
2018-07-24T03:02:58.255Z,99.90
2018-07-24T03:05:26.694Z,99.90
2018-07-24T03:07:55.180Z,99.90
2018-07-24T03:10:24.631Z,99.90
2018-07-24T03:12:53.163Z,99.90
2018-07-24T03:15:21.664Z,99.90
2018-07-24T03:17:50.107Z,99.90
2018-07-24T03:20:18.875Z,99.90
2018-07-24T03:22:47.317Z,99.90
2018-07-24T03:25:15.844Z,99.90
2018-07-24T03:27:44.614Z,99.90
2018-07-24T03:30:13.102Z,99.90
2018-07-24T03:32:41.566Z,99.90
2018-07-24T03:35:10.092Z,99.90
2018-07-24T03:37:38.577Z,99.90
2018-07-24T03:40:07.035Z,99.90
2018-07-24T03:42:35.815Z,99.90
2018-07-24T03:45:04.928Z,99.90
2018-07-24T03:47:33.995Z,99.90
2018-07-24T03:50:02.478Z,99.90
2018-07-24T03:52:30.924Z,99.90
2018-07-24T03:54:59.635Z,99.90
2018-07-24T03:57:29.170Z,99.90
2018-07-24T03:59:57.642Z,99.90
2018-07-24T04:02:26.119Z,99.90
2018-07-24T04:04:54.879Z,99.90
2018-07-24T04:07:23.378Z,99.90
2018-07-24T04:09:52.187Z,99.90
2018-07-24T04:12:20.632Z,99.90
2018-07-24T04:14:49.478Z,99.90
2018-07-24T04:17:18.013Z,99.90
2018-07-24T04:19:46.517Z,99.90
2018-07-24T04:22:14.986Z,99.90
2018-07-24T04:24:43.503Z,99.90
2018-07-24T04:27:11.934Z,99.90
2018-07-24T04:29:40.415Z,99.90
2018-07-24T04:32:08.991Z,99.90
2018-07-24T04:34:37.718Z,99.90
2018-07-24T04:37:06.400Z,99.90
2018-07-24T04:39:34.923Z,99.90
2018-07-24T04:42:03.361Z,99.90
2018-07-24T04:44:32.088Z,99.90
2018-07-24T04:47:00.578Z,99.90
2018-07-24T04:49:29.051Z,99.90
2018-07-24T04:51:57.544Z,99.90
2018-07-24T04:54:25.993Z,99.90
2018-07-24T04:56:54.478Z,99.90
2018-07-24T04:59:22.924Z,99.90
2018-07-24T05:01:51.418Z,99.90
2018-07-24T05:04:20.169Z,99.90
2018-07-24T05:06:48.667Z,99.90
2018-07-24T05:09:17.142Z,99.90
2018-07-24T05:11:45.947Z,99.90
2018-07-24T05:14:15.123Z,99.90
2018-07-24T05:16:43.837Z,99.90
2018-07-24T05:19:12.288Z,99.90
2018-07-24T05:21:41.067Z,99.90
2018-07-24T05:24:09.581Z,99.90
2018-07-24T05:26:38.071Z,99.90
2018-07-24T05:29:06.858Z,99.90
2018-07-24T05:31:35.332Z,99.90
2018-07-24T05:34:03.852Z,99.90
2018-07-24T05:36:32.359Z,99.90
2018-07-24T05:39:00.891Z,99.90
2018-07-24T05:41:29.355Z,99.90
2018-07-24T05:43:58.090Z,99.90
2018-07-24T05:46:26.523Z,99.90
2018-07-24T05:48:55.041Z,99.90
2018-07-24T05:51:23.483Z,99.90
2018-07-24T05:53:51.972Z,99.90
2018-07-24T05:56:20.418Z,99.90
2018-07-24T05:58:49.182Z,99.90
2018-07-24T06:01:17.704Z,99.90
2018-07-24T06:03:46.755Z,99.90
2018-07-24T06:06:15.259Z,99.90
2018-07-24T06:08:43.738Z,99.90
2018-07-24T06:11:12.553Z,99.90
2018-07-24T06:13:41.386Z,99.90
2018-07-24T06:16:09.831Z,99.90
2018-07-24T06:18:38.408Z,99.90
2018-07-24T06:21:07.198Z,99.90
2018-07-24T06:23:35.695Z,99.90
2018-07-24T06:26:04.167Z,99.90
2018-07-24T06:28:32.890Z,99.90
2018-07-24T06:31:02.044Z,99.90
2018-07-24T06:33:30.715Z,99.90
2018-07-24T06:35:59.199Z,99.90
2018-07-24T06:38:28.412Z,99.90
2018-07-24T06:40:57.023Z,99.90
2018-07-24T06:43:25.992Z,99.90
2018-07-24T06:45:54.464Z,99.90
2018-07-24T06:48:22.952Z,99.90
2018-07-24T06:50:51.455Z,99.90
2018-07-24T06:53:19.920Z,99.90
2018-07-24T06:55:48.409Z,99.90
2018-07-24T06:58:17.217Z,99.90
2018-07-24T07:00:45.705Z,99.90
2018-07-24T07:03:14.230Z,99.90
2018-07-24T07:05:42.695Z,99.90
2018-07-24T07:08:11.175Z,99.90
2018-07-24T07:10:39.950Z,99.90
2018-07-24T07:13:08.766Z,99.90
2018-07-24T07:15:37.268Z,99.90
2018-07-24T07:18:06.105Z,99.90
2018-07-24T07:20:34.885Z,99.90
2018-07-24T07:23:03.678Z,99.90
2018-07-24T07:25:32.418Z,99.90
2018-07-24T07:28:00.947Z,99.90
2018-07-24T07:30:29.659Z,99.90
2018-07-24T07:32:58.125Z,99.90
2018-07-24T07:35:26.630Z,99.90
2018-07-24T07:37:55.385Z,99.90
2018-07-24T07:40:23.866Z,99.90
2018-07-24T07:42:52.936Z,99.40
2018-07-24T07:45:21.736Z,99.20
2018-07-24T07:47:50.171Z,99.50
2018-07-24T07:50:18.903Z,99.60
2018-07-24T07:52:47.628Z,99.10
2018-07-24T07:55:16.255Z,99.30
2018-07-24T07:57:45.052Z,98.30
2018-07-24T08:00:13.577Z,96.90
2018-07-24T08:02:42.004Z,97.00
2018-07-24T08:05:10.765Z,97.50
2018-07-24T08:07:39.250Z,96.90
2018-07-24T08:10:07.918Z,96.60
2018-07-24T08:12:36.619Z,96.50
2018-07-24T08:15:05.442Z,96.00
2018-07-24T08:17:34.410Z,94.90
2018-07-24T08:20:02.889Z,93.50
2018-07-24T08:22:31.410Z,93.80
2018-07-24T08:24:59.872Z,94.30
2018-07-24T08:27:28.373Z,94.40
2018-07-24T08:29:56.831Z,94.10
2018-07-24T08:32:25.340Z,94.00
2018-07-24T08:34:53.814Z,91.80
2018-07-24T08:39:50.826Z,91.90
2018-07-24T08:42:19.303Z,91.40
2018-07-24T08:44:48.134Z,89.30
2018-07-24T08:47:16.941Z,88.80
2018-07-24T08:49:45.387Z,90.00
2018-07-24T08:52:13.918Z,91.50
2018-07-24T08:54:42.704Z,89.30
2018-07-24T08:57:10.870Z,86.80
2018-07-24T08:59:39.350Z,86.30
2018-07-24T09:02:08.040Z,88.30
2018-07-24T09:04:36.536Z,90.10
2018-07-24T09:07:05.362Z,87.50
2018-07-24T09:09:33.870Z,86.20
2018-07-24T09:12:02.362Z,86.90
2018-07-24T09:14:30.832Z,83.70
2018-07-24T09:16:59.337Z,81.90
2018-07-24T09:19:27.862Z,82.20
2018-07-24T09:24:24.482Z,81.20
2018-07-24T09:26:53.011Z,81.10
2018-07-24T09:29:21.519Z,79.80
2018-07-24T09:31:50.055Z,79.90
2018-07-24T09:36:46.714Z,80.60
2018-07-24T09:39:15.450Z,79.80
2018-07-24T09:41:44.499Z,81.90
2018-07-24T09:44:13.013Z,77.00
2018-07-24T09:46:41.454Z,78.00
2018-07-24T09:49:09.955Z,78.70
2018-07-24T09:51:38.467Z,78.00
2018-07-24T09:54:06.962Z,74.80
2018-07-24T09:56:35.470Z,76.80
2018-07-24T09:59:04.012Z,76.40
2018-07-24T10:04:03.870Z,73.20
2018-07-24T10:06:33.510Z,72.40
2018-07-24T10:09:02.032Z,69.70
2018-07-24T10:11:30.515Z,70.00
2018-07-24T10:13:59.011Z,70.70
2018-07-24T10:16:27.860Z,70.10
2018-07-24T10:18:56.366Z,70.30
2018-07-24T10:21:25.672Z,70.00
2018-07-24T10:23:54.470Z,68.80
2018-07-24T10:26:23.363Z,68.80
2018-07-24T10:28:52.168Z,68.60
2018-07-24T10:31:20.679Z,65.10
2018-07-24T10:33:49.520Z,64.00
2018-07-24T10:36:18.015Z,64.60
2018-07-24T10:38:46.502Z,63.00
2018-07-24T10:41:15.384Z,68.90
2018-07-24T10:43:44.076Z,60.00
2018-07-24T10:46:12.532Z,62.70
2018-07-24T10:48:41.064Z,61.90
2018-07-24T10:51:09.695Z,58.30
2018-07-24T10:53:38.422Z,59.20
2018-07-24T10:56:06.995Z,59.00
2018-07-24T10:58:35.479Z,57.80
2018-07-24T11:01:03.963Z,61.80
2018-07-24T11:03:32.475Z,60.60
2018-07-24T11:06:00.911Z,59.10
2018-07-24T11:08:29.402Z,63.30
2018-07-24T11:10:57.959Z,58.70
2018-07-24T11:13:26.866Z,59.60
2018-07-24T11:15:55.402Z,60.50
2018-07-24T11:18:23.891Z,58.40
2018-07-24T11:20:52.714Z,59.30
2018-07-24T11:23:21.233Z,56.90
2018-07-24T11:25:50.012Z,57.90
2018-07-24T11:28:18.523Z,59.00
2018-07-24T11:30:47.292Z,55.20
2018-07-24T11:33:16.128Z,58.80
2018-07-24T11:35:44.877Z,56.30
2018-07-24T11:38:13.680Z,55.70
2018-07-24T11:40:42.446Z,56.30
2018-07-24T11:43:11.211Z,55.70
2018-07-24T11:45:39.695Z,56.40
2018-07-24T11:48:08.134Z,56.20
2018-07-24T11:50:36.602Z,58.10
2018-07-24T11:53:05.102Z,55.60
2018-07-24T11:55:33.926Z,53.30
2018-07-24T11:58:02.476Z,55.50
2018-07-24T12:00:31.208Z,55.70
2018-07-24T12:02:59.663Z,55.60
2018-07-24T12:05:28.459Z,56.40
2018-07-24T12:07:57.201Z,55.70
2018-07-24T12:10:25.711Z,55.60
2018-07-24T12:12:54.155Z,55.90
2018-07-24T12:15:22.679Z,56.30
2018-07-24T12:17:51.154Z,55.00
2018-07-24T12:20:19.811Z,55.30
2018-07-24T12:22:48.319Z,55.20
2018-07-24T12:25:16.799Z,55.10
2018-07-24T12:27:45.264Z,54.60
2018-07-24T12:30:13.753Z,54.60
2018-07-24T12:32:42.218Z,54.70
2018-07-24T12:35:11.003Z,55.40
2018-07-24T12:37:39.809Z,53.90
2018-07-24T12:40:08.315Z,54.00
2018-07-24T12:42:36.801Z,53.80
2018-07-24T12:47:33.817Z,53.00
2018-07-24T12:50:02.539Z,52.90
2018-07-24T12:52:31.051Z,53.10
2018-07-24T12:54:59.503Z,52.90
2018-07-24T12:59:56.415Z,52.10
2018-07-24T13:02:25.136Z,52.30
2018-07-24T13:04:53.923Z,52.70
2018-07-24T13:07:22.742Z,53.80
2018-07-24T13:09:51.193Z,53.20
2018-07-24T13:12:19.713Z,52.00
2018-07-24T13:14:48.432Z,51.20
2018-07-24T13:17:16.922Z,51.50
2018-07-24T13:19:45.710Z,52.90
2018-07-24T13:22:14.491Z,52.00
2018-07-24T13:24:43.114Z,50.80
2018-07-24T13:27:11.782Z,49.40
2018-07-24T13:29:40.275Z,50.00
2018-07-24T13:32:08.748Z,49.70
2018-07-24T13:34:37.234Z,49.70
2018-07-24T13:37:05.829Z,51.80
2018-07-24T13:39:34.298Z,55.20
2018-07-24T13:42:03.382Z,51.00
2018-07-24T13:44:32.503Z,50.30
2018-07-24T13:47:01.319Z,49.60
2018-07-24T13:49:29.792Z,49.20
2018-07-24T13:51:58.298Z,48.80
2018-07-24T13:54:26.762Z,49.20
2018-07-24T13:56:55.535Z,49.50
2018-07-24T13:59:24.091Z,50.00
2018-07-24T14:01:52.626Z,51.30
2018-07-24T14:04:21.130Z,52.00
2018-07-24T14:06:49.929Z,52.20
2018-07-24T14:09:18.956Z,52.10
2018-07-24T14:11:47.442Z,52.00
2018-07-24T14:14:16.245Z,51.70
2018-07-24T14:16:44.666Z,48.10
2018-07-24T14:19:13.195Z,48.60
2018-07-24T14:21:41.665Z,49.50
2018-07-24T14:24:10.420Z,50.50
2018-07-24T14:26:39.136Z,48.50
2018-07-24T14:29:07.818Z,49.80
2018-07-24T14:31:36.333Z,49.60
2018-07-24T14:34:04.779Z,49.40
2018-07-24T14:36:33.602Z,48.20
2018-07-24T14:39:02.293Z,49.20
2018-07-24T14:41:30.792Z,47.90
2018-07-24T14:43:59.261Z,48.90
2018-07-24T14:46:27.769Z,49.70
2018-07-24T14:48:56.545Z,46.70
2018-07-24T14:51:25.051Z,46.60
2018-07-24T14:53:53.798Z,47.10
2018-07-24T14:56:22.609Z,48.00
2018-07-24T14:58:51.100Z,46.90
2018-07-24T15:01:19.547Z,48.20
2018-07-24T15:03:48.031Z,47.10
2018-07-24T15:06:16.494Z,47.50
2018-07-24T15:08:45.303Z,46.00
2018-07-24T15:11:13.791Z,48.10
2018-07-24T15:13:42.614Z,45.00
2018-07-24T15:16:11.050Z,45.90
2018-07-24T15:18:39.575Z,45.40
2018-07-24T15:21:08.082Z,47.00
2018-07-24T15:23:37.359Z,44.10
2018-07-24T15:26:05.902Z,44.50
2018-07-24T15:28:34.401Z,45.60
2018-07-24T15:31:02.872Z,44.70
2018-07-24T15:33:31.364Z,45.80
2018-07-24T15:35:59.821Z,46.50
2018-07-24T15:38:28.579Z,46.40
2018-07-24T15:40:57.190Z,44.50
2018-07-24T15:43:27.744Z,44.50
2018-07-24T15:45:56.230Z,44.00
2018-07-24T15:48:25.015Z,45.40
2018-07-24T15:50:53.517Z,44.70
2018-07-24T15:53:22.292Z,46.20
2018-07-24T15:55:50.793Z,46.50
2018-07-24T15:58:19.261Z,45.60
2018-07-24T16:00:47.763Z,44.60
2018-07-24T16:03:16.206Z,45.10
2018-07-24T16:05:44.766Z,44.90
2018-07-24T16:08:13.214Z,45.50
2018-07-24T16:10:41.699Z,43.80
2018-07-24T16:13:10.138Z,45.10
2018-07-24T16:15:38.832Z,45.90
2018-07-24T16:18:07.278Z,45.30
2018-07-24T16:20:35.793Z,44.60
2018-07-24T16:23:04.923Z,45.40
2018-07-24T16:25:33.374Z,45.50
2018-07-24T16:28:02.215Z,46.10
2018-07-24T16:30:31.023Z,47.40
2018-07-24T16:32:59.974Z,47.80
2018-07-24T16:35:28.433Z,47.90
2018-07-24T16:37:56.918Z,47.80
2018-07-24T16:40:25.635Z,48.70
2018-07-24T16:42:54.095Z,48.40
2018-07-24T16:45:22.659Z,48.80
2018-07-24T16:47:51.129Z,48.80
2018-07-24T16:50:19.615Z,48.80
2018-07-24T16:52:48.104Z,48.30
2018-07-24T16:55:16.567Z,48.30
2018-07-24T16:57:45.359Z,48.10
2018-07-24T17:00:13.856Z,48.90
2018-07-24T17:02:42.689Z,48.00
2018-07-24T17:05:11.164Z,49.30
2018-07-24T17:07:40.123Z,48.90
2018-07-24T17:10:08.695Z,48.90
2018-07-24T17:12:37.278Z,49.70
2018-07-24T17:15:06.691Z,48.50
2018-07-24T17:17:35.159Z,48.50
2018-07-24T17:20:03.760Z,48.10
2018-07-24T17:22:32.317Z,48.00
2018-07-24T17:25:01.113Z,48.30
2018-07-24T17:27:30.302Z,48.90
2018-07-24T17:32:26.902Z,49.70
2018-07-24T17:34:55.387Z,50.10
2018-07-24T17:37:23.898Z,49.60
2018-07-24T17:39:52.351Z,49.60
2018-07-24T17:42:21.135Z,50.00
2018-07-24T17:44:49.594Z,49.80
2018-07-24T17:47:18.047Z,50.20
2018-07-24T17:49:46.487Z,50.60
2018-07-24T17:52:15.308Z,49.50
2018-07-24T17:54:43.980Z,51.40
2018-07-24T17:57:12.493Z,50.90
2018-07-24T17:59:40.925Z,51.30
2018-07-24T18:02:09.405Z,51.30
2018-07-24T18:04:38.179Z,51.20
2018-07-24T18:07:06.675Z,51.60
2018-07-24T18:09:35.107Z,52.30
2018-07-24T18:12:03.647Z,51.70
2018-07-24T18:14:32.627Z,51.70
2018-07-24T18:17:01.105Z,51.60
2018-07-24T18:19:29.585Z,51.90
2018-07-24T18:21:58.090Z,53.30
2018-07-24T18:24:26.530Z,52.10
2018-07-24T18:26:55.327Z,52.60
2018-07-24T18:29:24.092Z,53.10
2018-07-24T18:31:52.558Z,54.10
2018-07-24T18:34:21.310Z,54.90
2018-07-24T18:36:49.789Z,56.10
2018-07-24T18:39:18.251Z,57.50
2018-07-24T18:41:46.698Z,57.40
2018-07-24T18:44:15.195Z,59.10
2018-07-24T18:46:43.654Z,59.60
2018-07-24T18:49:12.406Z,61.20
2018-07-24T18:51:41.128Z,63.00
2018-07-24T18:54:09.640Z,62.90
2018-07-24T18:56:38.151Z,66.60
2018-07-24T18:59:06.983Z,70.00
2018-07-24T19:01:35.586Z,71.80
2018-07-24T19:04:04.355Z,72.20
2018-07-24T19:06:32.806Z,70.50
2018-07-24T19:09:01.683Z,71.80
2018-07-24T19:11:30.202Z,72.00
2018-07-24T19:13:58.699Z,72.20
2018-07-24T19:16:27.344Z,73.60
2018-07-24T19:18:56.555Z,74.30
2018-07-24T19:21:25.138Z,74.40
2018-07-24T19:23:53.611Z,74.90
2018-07-24T19:26:22.068Z,75.30
2018-07-24T19:28:50.842Z,75.40
2018-07-24T19:31:19.381Z,74.40
2018-07-24T19:33:47.816Z,73.80
2018-07-24T19:36:16.818Z,73.70
2018-07-24T19:38:46.691Z,74.10
2018-07-24T19:41:15.302Z,73.50
2018-07-24T19:43:43.882Z,74.30
2018-07-24T19:46:12.303Z,75.10
2018-07-24T19:48:40.768Z,75.90
2018-07-24T19:51:09.331Z,76.90
2018-07-24T19:53:38.114Z,78.00
2018-07-24T19:56:06.574Z,78.80
2018-07-24T19:58:35.047Z,79.50
2018-07-24T20:01:03.617Z,80.40
2018-07-24T20:03:32.111Z,81.00
2018-07-24T20:06:00.700Z,79.80
2018-07-24T20:08:29.207Z,80.90
2018-07-24T20:10:57.665Z,82.40
2018-07-24T20:13:26.167Z,84.50
2018-07-24T20:15:54.876Z,85.10
2018-07-24T20:18:23.518Z,85.30
2018-07-24T20:20:52.850Z,86.00
2018-07-24T20:23:21.416Z,85.90
2018-07-24T20:25:50.074Z,84.80
2018-07-24T20:28:18.859Z,83.30
2018-07-24T20:30:47.424Z,83.20
2018-07-24T20:33:15.882Z,84.10
2018-07-24T20:35:44.603Z,84.90
2018-07-24T20:38:13.146Z,85.30
2018-07-24T20:43:10.406Z,83.80
2018-07-24T20:45:38.912Z,84.70
2018-07-24T20:48:07.691Z,85.90
2018-07-24T20:50:36.151Z,87.00
2018-07-24T20:53:04.941Z,87.80
2018-07-24T20:58:01.834Z,89.60
2018-07-24T21:00:30.357Z,90.30
2018-07-24T21:02:58.842Z,90.10
2018-07-24T21:05:27.303Z,90.50
2018-07-24T21:07:55.767Z,90.30
2018-07-24T21:10:24.600Z,90.50
2018-07-24T21:12:53.562Z,91.00
2018-07-24T21:15:22.022Z,91.50
2018-07-24T21:17:51.068Z,91.80
2018-07-24T21:20:19.551Z,92.20
2018-07-24T21:22:48.024Z,92.50
2018-07-24T21:25:16.732Z,92.30
2018-07-24T21:27:45.522Z,92.70
2018-07-24T21:30:13.999Z,93.40
2018-07-24T21:32:42.667Z,94.00
2018-07-24T21:35:11.181Z,94.30
2018-07-24T21:37:39.933Z,94.90
2018-07-24T21:40:09.035Z,94.90
2018-07-24T21:42:37.540Z,95.10
2018-07-24T21:45:05.985Z,96.10
2018-07-24T21:47:34.779Z,97.00
2018-07-24T21:50:03.342Z,97.80
2018-07-24T21:52:31.784Z,98.20
2018-07-24T21:55:00.523Z,98.60
2018-07-24T21:57:29.022Z,99.30
2018-07-24T21:59:57.533Z,99.50
2018-07-24T22:02:25.984Z,98.30
2018-07-24T22:04:54.719Z,98.50
2018-07-24T22:07:23.163Z,99.20
2018-07-24T22:09:51.962Z,99.90
2018-07-24T22:14:48.904Z,99.90
2018-07-24T22:17:17.366Z,99.90
2018-07-24T22:19:46.130Z,99.90
2018-07-24T22:22:14.912Z,99.90
2018-07-24T22:24:43.374Z,99.90
2018-07-24T22:27:11.815Z,99.90
2018-07-24T22:29:40.294Z,99.90
2018-07-24T22:32:08.772Z,99.90
2018-07-24T22:34:37.276Z,99.90
2018-07-24T22:37:06.089Z,99.90
2018-07-24T22:39:34.560Z,99.90
2018-07-24T22:42:03.545Z,99.90
2018-07-24T22:44:32.343Z,99.90
2018-07-24T22:47:00.778Z,99.90
2018-07-24T22:49:29.506Z,99.90
2018-07-24T22:51:58.095Z,99.90
2018-07-24T22:54:26.603Z,99.90
2018-07-24T22:56:55.059Z,99.90
2018-07-24T22:59:23.526Z,99.90
2018-07-24T23:01:51.975Z,99.90
2018-07-24T23:04:20.447Z,99.90
2018-07-24T23:06:48.889Z,99.90
2018-07-24T23:09:17.842Z,99.90
2018-07-24T23:11:46.283Z,99.90
2018-07-24T23:14:15.315Z,99.90
2018-07-24T23:16:44.034Z,99.90
2018-07-24T23:19:12.507Z,99.90
2018-07-24T23:21:40.963Z,99.90
2018-07-24T23:24:09.702Z,99.90
2018-07-24T23:26:38.158Z,99.90
2018-07-24T23:29:06.636Z,99.90
2018-07-24T23:31:35.144Z,99.90
2018-07-24T23:34:03.641Z,99.90
2018-07-24T23:36:32.949Z,99.90
2018-07-24T23:39:01.803Z,99.90
2018-07-24T23:41:30.262Z,99.90
2018-07-24T23:43:58.702Z,99.90
2018-07-24T23:46:27.182Z,99.90
2018-07-24T23:48:55.628Z,99.90
2018-07-24T23:51:24.099Z,99.90
2018-07-24T23:53:53.062Z,99.90
2018-07-24T23:56:21.584Z,99.90
2018-07-24T23:58:50.314Z,99.90
